ePrivacy and GPDR Cookie Consent by Cookie Consent
EmailTwitter


Observations de surface / Royaume-Uni / EGLL (03772)

Régions: Québec | Canada | États-Unis | Europe | France | UK | Ailleurs
Station
Affichage
Infos & localisation pour EGLL (03772) | Aide pour décoder les METARs

Observations prises le 2022-05-22 à 14H20 UTC à LONDON/HEATHROW, UK (EGLL)

Température: 22.0 Celsius

Point de rosée: 8.0 Celsius

Humidité relative: 41%

Vents: Sud-ouest à 15 km/h ou 8 noeuds.

Pression au niveau moyen de la mer: 101.10 kilopascals.

Visibilité horizontale: 6.21 milles terrestres ou 9.94 kilomètres.

Observation METAR:

EGLL 221420Z AUTO 23008KT 180V250 9999 NCD 22/08 Q1011 NOSIG=